High wind

Not for real navigation. The accuracy of this data is not assured See disclaimer for more information



ICAO NAME COUNTRY WIND Kt GUST Kt VIS m TEMP/DEW C BARO METAR
KGDP GUADALUPE PASS TX United States 33 0 4800 1/-1 30.14 KGDP 150804Z AUTO 06033KT 3SM BR OVC002 01/M01 A3014 RMK AO2 PK WND 06042/0759 T00061006 $
EHDV 29 0 9999 12/10 29.85 EHDV 150755Z AUTO VRB29KT 9999 DZ SCT007/// OVC008/// 12/10 Q1011 W///H///
YLRE 28 38 9999 24/19 29.88 YLRE 150801Z AUTO 35028G38KT 300V360 9999 // OVC100 24/19 Q1012
CXBO Beauport CS, Que. Canada 28 0 9999 0/0 29.92 CXBO 150800Z AUTO 00028KT RMK AO1
PAJZ 28 32 12800 8/4 29.52 PAJZ 150756Z AUTO 11028G32KT 8SM OVC110 08/04 A2952 RMK AO2 PK WND 10033/0746 SLP004 T00780039 40094

Show more